Time;durP1;ratioP1;P1;durP2;ratioP2;P2;SDS_P1;SDS_P2;PMS_P1;PMS_P2;Temp;Humidity;BMP_temperature;BMP_pressure;BME280_temperature;BME280_humidity;BME280_pressure;Samples;Min_cycle;Max_cycle;Signal;HPM_P1;HPM_P2
2022/05/04 00:00:17;;;;;;;15.57;5.10;;;;;;;8.21;72.02;101873.03;5032425;28;20029;-70
2022/05/04 00:02:42;;;;;;;11.45;4.65;;;;;;;8.19;71.79;101873.06;5035311;28;20390;-76
2022/05/04 00:05:08;;;;;;;8.35;4.63;;;;;;;8.19;72.03;101869.47;5008108;28;20052;-69
2022/05/04 00:07:34;;;;;;;17.23;5.13;;;;;;;8.22;71.78;101868.47;5024504;28;20075;-69
2022/05/04 00:09:59;;;;;;;8.30;4.68;;;;;;;8.24;72.09;101864.72;5014050;28;20030;-76
2022/05/04 00:12:25;;;;;;;10.85;4.93;;;;;;;8.24;72.70;101867.44;5003788;28;20068;-76
2022/05/04 00:14:51;;;;;;;10.23;4.60;;;;;;;8.24;72.88;101863.84;5032646;28;20048;-76
2022/05/04 00:17:17;;;;;;;12.48;4.68;;;;;;;8.23;72.25;101867.50;5010506;28;20044;-69
2022/05/04 00:19:42;;;;;;;10.07;4.60;;;;;;;8.19;71.62;101856.81;5032668;28;20039;-70
2022/05/04 00:22:07;;;;;;;9.45;4.70;;;;;;;8.30;72.33;101872.59;5021841;28;20512;-70
2022/05/04 00:24:33;;;;;;;14.63;5.18;;;;;;;8.36;72.50;101871.41;5023218;28;20083;-75
2022/05/04 00:26:58;;;;;;;8.40;4.97;;;;;;;8.42;72.68;101865.72;5031081;28;20450;-76
2022/05/04 00:29:24;;;;;;;13.15;4.93;;;;;;;8.47;72.04;101877.25;5021035;28;20063;-69
2022/05/04 00:31:49;;;;;;;9.98;4.70;;;;;;;8.50;73.17;101870.81;5014129;28;20034;-69
2022/05/04 00:34:15;;;;;;;10.48;4.82;;;;;;;8.50;73.10;101868.97;5022459;28;20041;-69
2022/05/04 00:36:40;;;;;;;10.45;5.10;;;;;;;8.50;73.98;101873.53;5008344;28;20108;-70
2022/05/04 00:39:05;;;;;;;11.10;4.90;;;;;;;8.50;72.79;101865.38;5016942;28;20037;-75
2022/05/04 00:41:31;;;;;;;9.35;4.50;;;;;;;8.56;71.93;101865.09;5005217;28;20574;-69
2022/05/04 00:43:56;;;;;;;15.25;5.20;;;;;;;8.61;72.45;101868.44;5029249;28;20496;-75
2022/05/04 00:46:22;;;;;;;9.07;5.05;;;;;;;8.64;72.38;101868.31;5020838;28;20476;-69
2022/05/04 00:48:48;;;;;;;11.70;5.53;;;;;;;8.65;74.28;101864.66;5034105;28;20026;-69
2022/05/04 00:51:14;;;;;;;11.07;5.25;;;;;;;8.64;74.04;101871.91;5027465;28;20582;-69
2022/05/04 00:53:41;;;;;;;14.35;5.20;;;;;;;8.61;74.01;101857.59;5018536;28;20113;-76
2022/05/04 00:56:08;;;;;;;11.55;5.47;;;;;;;8.66;73.92;101864.56;5028148;28;20421;-70
2022/05/04 01:01:20;;;;;;;8.77;4.97;;;;;;;8.71;73.94;101856.19;5013724;28;20109;-76
2022/05/04 01:03:46;;;;;;;9.93;4.88;;;;;;;8.70;71.88;101854.44;5013677;28;20176;-69
2022/05/04 01:06:12;;;;;;;15.75;5.90;;;;;;;8.69;71.98;101849.97;5018853;28;20112;-69
2022/05/04 01:08:38;;;;;;;10.43;5.50;;;;;;;8.69;71.38;101853.56;5026920;28;20118;-69
2022/05/04 01:11:03;;;;;;;12.05;5.68;;;;;;;8.69;71.05;101849.97;5028414;28;20076;-76
2022/05/04 01:13:29;;;;;;;12.15;4.78;;;;;;;8.69;71.57;101847.28;5029989;28;20503;-69
2022/05/04 01:15:54;;;;;;;11.15;4.97;;;;;;;8.71;70.81;101855.31;5005528;28;20028;-77
2022/05/04 01:18:20;;;;;;;9.68;5.03;;;;;;;8.69;71.49;101850.84;5030505;28;20038;-75
2022/05/04 01:20:45;;;;;;;13.25;4.60;;;;;;;8.73;70.54;101859.72;5029877;28;20076;-70
2022/05/04 01:23:11;;;;;;;11.98;5.13;;;;;;;8.76;71.59;101853.25;5005405;28;20042;-74
2022/05/04 01:25:37;;;;;;;7.75;4.70;;;;;;;8.72;70.76;101849.84;5013305;28;20091;-69
2022/05/04 01:28:04;;;;;;;8.77;4.32;;;;;;;8.68;71.48;101856.38;5029908;28;20384;-69
2022/05/04 01:30:32;;;;;;;10.70;5.30;;;;;;;8.61;71.00;101863.91;5029542;28;20095;-76
2022/05/04 01:32:57;;;;;;;16.48;5.15;;;;;;;8.57;72.13;101862.28;5026827;28;20477;-69
2022/05/04 01:35:22;;;;;;;11.20;4.97;;;;;;;8.58;70.54;101852.31;5013136;28;20035;-69
2022/05/04 01:37:47;;;;;;;9.90;4.55;;;;;;;8.58;70.53;101857.75;5001983;28;20128;-76
2022/05/04 01:40:13;;;;;;;10.13;5.32;;;;;;;8.51;70.99;101850.88;5024019;28;20029;-68
2022/05/04 01:42:39;;;;;;;11.00;4.55;;;;;;;8.53;70.87;101855.25;4983349;28;20064;-69
2022/05/04 01:45:05;;;;;;;12.40;4.88;;;;;;;8.55;71.79;101857.91;5030900;28;20064;-69
2022/05/04 01:47:31;;;;;;;12.93;4.78;;;;;;;8.52;70.50;101852.63;5020191;28;20600;-69
2022/05/04 01:49:56;;;;;;;8.77;4.55;;;;;;;8.50;71.57;101850.00;5030734;28;20119;-69
2022/05/04 01:52:21;;;;;;;9.50;4.32;;;;;;;8.54;71.08;101851.59;5019396;28;20389;-75
2022/05/04 01:54:47;;;;;;;10.23;4.18;;;;;;;8.54;69.54;101851.59;5011849;28;20485;-70
2022/05/04 01:57:12;;;;;;;7.57;4.15;;;;;;;8.58;70.18;101857.75;5029837;28;20469;-75
2022/05/04 01:59:38;;;;;;;11.18;4.18;;;;;;;8.54;70.38;101854.31;5029133;28;20076;-69
2022/05/04 02:02:07;;;;;;;13.10;5.35;;;;;;;8.52;70.39;101858.03;5028736;28;20033;-69
2022/05/04 02:04:33;;;;;;;10.73;3.72;;;;;;;8.46;69.99;101850.22;5030181;28;20045;-69
2022/05/04 02:07:00;;;;;;;10.50;3.85;;;;;;;8.42;70.75;101857.59;5029117;28;20040;-76
2022/05/04 02:09:27;;;;;;;11.18;5.55;;;;;;;8.40;71.71;101852.25;5019940;28;20036;-76
2022/05/04 02:11:52;;;;;;;10.23;4.45;;;;;;;8.37;70.71;101844.25;4997207;28;20541;-69
2022/05/04 02:14:19;;;;;;;11.02;4.20;;;;;;;8.41;70.17;101850.44;5029118;28;20130;-69
2022/05/04 02:16:45;;;;;;;8.90;4.47;;;;;;;8.43;70.55;101852.09;5030139;28;20041;-69
2022/05/04 02:19:10;;;;;;;14.50;4.32;;;;;;;8.39;70.70;101849.59;5011152;28;20048;-76
2022/05/04 02:21:35;;;;;;;11.15;4.20;;;;;;;8.36;70.26;101838.88;5025065;28;20080;-72
2022/05/04 02:24:01;;;;;;;12.32;4.63;;;;;;;8.34;70.44;101846.19;5016872;28;20064;-69
2022/05/04 02:26:26;;;;;;;10.48;4.38;;;;;;;8.34;70.32;101849.78;5007472;28;20076;-76
2022/05/04 02:28:51;;;;;;;8.65;4.18;;;;;;;8.37;70.36;101849.69;5027431;28;20064;-69
2022/05/04 02:31:17;;;;;;;8.55;3.83;;;;;;;8.43;70.24;101840.38;5028525;28;20069;-70
2022/05/04 02:33:44;;;;;;;15.57;5.13;;;;;;;8.45;70.54;101845.75;5030475;28;20092;-74
2022/05/04 02:38:53;;;;;;;12.00;3.72;;;;;;;8.29;70.61;101843.69;5022724;28;20073;-76
2022/05/04 02:41:18;;;;;;;10.40;3.95;;;;;;;8.28;70.67;101839.22;5025526;28;20069;-74
2022/05/04 02:43:44;;;;;;;7.18;4.53;;;;;;;8.28;70.92;101841.06;5010238;28;20073;-71
2022/05/04 02:46:15;;;;;;;18.40;4.40;;;;;;;8.27;70.17;101844.75;5026493;28;20079;-70
2022/05/04 02:48:41;;;;;;;9.40;3.70;;;;;;;8.30;70.73;101844.56;5005829;28;20146;-70
2022/05/04 02:51:06;;;;;;;14.63;4.18;;;;;;;8.33;69.95;101837.19;5029074;28;20026;-70
2022/05/04 02:53:31;;;;;;;12.90;4.43;;;;;;;8.37;70.22;101838.84;5018094;28;20171;-75
2022/05/04 02:55:57;;;;;;;8.88;4.00;;;;;;;8.39;69.97;101836.03;5016578;28;20072;-75
2022/05/04 02:58:22;;;;;;;8.25;4.18;;;;;;;8.41;69.72;101839.56;5022697;28;20034;-69
2022/05/04 03:00:47;;;;;;;10.85;5.30;;;;;;;8.43;70.18;101834.94;5029611;28;20034;-75
2022/05/04 03:03:13;;;;;;;13.00;4.90;;;;;;;8.43;70.42;101837.66;5012487;28;20045;-76
2022/05/04 03:05:38;;;;;;;10.77;4.70;;;;;;;8.39;71.43;101836.94;5010222;28;20417;-70
2022/05/04 03:08:04;;;;;;;12.93;5.22;;;;;;;8.38;71.08;101831.56;5009501;28;20039;-69
2022/05/04 03:10:29;;;;;;;12.10;4.25;;;;;;;8.36;70.25;101828.94;5017368;28;20044;-75
2022/05/04 03:12:54;;;;;;;10.60;4.90;;;;;;;8.34;71.64;101827.22;5024244;28;20031;-76
2022/05/04 03:15:20;;;;;;;10.82;5.07;;;;;;;8.34;71.38;101824.50;5026016;28;20041;-69
2022/05/04 03:17:45;;;;;;;10.80;5.00;;;;;;;8.31;71.06;101827.38;5002665;28;20080;-69
2022/05/04 03:20:14;;;;;;;10.43;4.50;;;;;;;8.29;70.61;101818.41;5025723;28;20033;-74
2022/05/04 03:22:40;;;;;;;8.82;4.75;;;;;;;8.29;70.29;101821.13;5016558;28;20068;-76
2022/05/04 03:25:06;;;;;;;11.30;4.50;;;;;;;8.24;70.73;101815.94;5022976;28;20042;-77
2022/05/04 03:27:32;;;;;;;14.48;4.20;;;;;;;8.18;70.74;101816.22;5016590;28;20400;-76
2022/05/04 03:29:57;;;;;;;11.18;4.35;;;;;;;8.15;71.46;101819.94;5029361;28;20033;-70
2022/05/04 03:32:22;;;;;;;6.35;3.78;;;;;;;8.12;72.43;101816.53;5016854;28;20083;-70
2022/05/04 03:34:48;;;;;;;12.02;4.80;;;;;;;8.05;71.65;101818.63;5011898;28;20029;-75
2022/05/04 03:37:14;;;;;;;15.20;5.18;;;;;;;8.02;71.65;101807.94;4997216;28;20040;-72
2022/05/04 03:39:39;;;;;;;10.18;4.47;;;;;;;8.04;71.02;101813.28;5024493;28;20096;-69
2022/05/04 03:42:05;;;;;;;12.68;5.22;;;;;;;8.05;72.00;101828.59;5022179;28;20072;-69
2022/05/04 03:44:30;;;;;;;10.10;4.00;;;;;;;8.02;71.60;101818.78;5013973;28;20021;-77
2022/05/04 03:46:55;;;;;;;12.63;4.78;;;;;;;8.06;71.39;101819.50;5032961;28;20499;-74
2022/05/04 03:49:22;;;;;;;15.00;4.57;;;;;;;8.08;72.23;101818.50;5015134;28;20025;-74
2022/05/04 03:51:48;;;;;;;13.50;4.35;;;;;;;8.06;73.74;101823.09;5024318;28;20030;-71
2022/05/04 03:54:14;;;;;;;11.23;4.13;;;;;;;8.00;72.70;101817.97;5006875;28;20635;-76
2022/05/04 03:56:40;;;;;;;10.88;4.57;;;;;;;7.93;72.64;101814.66;5025825;28;20102;-69
2022/05/04 03:59:06;;;;;;;9.88;4.32;;;;;;;7.86;73.09;101815.88;5025685;28;20650;-69
2022/05/04 04:01:32;;;;;;;14.40;4.35;;;;;;;7.84;72.91;101822.34;5014653;28;20523;-70
2022/05/04 04:03:58;;;;;;;9.30;3.90;;;;;;;7.83;72.83;101824.16;5011704;28;20112;-76
2022/05/04 04:06:23;;;;;;;7.32;4.22;;;;;;;7.79;72.38;101809.00;5021265;28;20151;-69
2022/05/04 04:08:50;;;;;;;10.95;4.65;;;;;;;7.83;72.55;101815.13;5013841;28;20052;-70
2022/05/04 04:11:15;;;;;;;8.20;4.38;;;;;;;7.82;72.94;101818.78;5028822;28;20080;-76
2022/05/04 04:13:41;;;;;;;12.43;4.07;;;;;;;7.77;72.66;101823.53;5031608;28;20061;-70
2022/05/04 04:16:06;;;;;;;14.00;4.55;;;;;;;7.72;72.61;101815.63;5014824;28;20382;-70
2022/05/04 04:18:31;;;;;;;8.85;4.30;;;;;;;7.64;74.23;101815.09;5030329;28;20037;-74
2022/05/04 04:23:41;;;;;;;12.50;4.70;;;;;;;7.52;73.73;101816.53;5026510;28;20141;-69
2022/05/04 04:26:08;;;;;;;9.98;4.15;;;;;;;7.44;73.92;101815.97;5001336;28;20779;-70
2022/05/04 04:28:35;;;;;;;8.77;4.25;;;;;;;7.40;74.83;101825.16;5027378;28;20029;-74
2022/05/04 04:31:01;;;;;;;13.68;5.88;;;;;;;7.35;74.75;101828.06;5020164;28;20575;-70
2022/05/04 04:33:27;;;;;;;12.23;4.43;;;;;;;7.37;73.43;101828.91;5032061;28;20067;-69
2022/05/04 04:35:53;;;;;;;7.85;3.78;;;;;;;7.40;73.47;101828.75;5029378;28;20440;-76
2022/05/04 04:38:19;;;;;;;14.93;4.70;;;;;;;7.42;73.69;101828.72;5012243;28;20354;-70
2022/05/04 04:40:45;;;;;;;14.38;4.57;;;;;;;7.42;73.86;101836.84;5027747;28;20124;-76
2022/05/04 04:43:10;;;;;;;9.57;4.25;;;;;;;7.39;73.64;101829.72;5008379;28;20116;-77
2022/05/04 04:45:36;;;;;;;12.10;4.57;;;;;;;7.41;73.63;101827.84;5011665;28;20036;-74
2022/05/04 04:48:01;;;;;;;10.25;4.55;;;;;;;7.40;74.21;101831.47;5024873;28;20083;-69
2022/05/04 04:50:27;;;;;;;6.38;3.95;;;;;;;7.39;73.87;101831.53;5031348;28;20025;-70
2022/05/04 04:52:52;;;;;;;9.38;4.80;;;;;;;7.38;74.17;101830.66;5028008;28;20040;-75
2022/05/04 04:55:18;;;;;;;13.43;4.97;;;;;;;7.34;74.46;101826.31;5006725;28;20069;-69
2022/05/04 04:57:43;;;;;;;13.98;4.80;;;;;;;7.30;74.46;101823.81;5030173;28;20029;-76
2022/05/04 05:00:09;;;;;;;15.35;5.20;;;;;;;7.28;74.37;101823.00;5009228;28;20124;-75
2022/05/04 05:02:35;;;;;;;15.38;4.80;;;;;;;7.26;74.48;101828.47;5030732;28;20071;-69
2022/05/04 05:05:04;;;;;;;10.05;4.45;;;;;;;7.20;74.24;101826.03;5030623;28;20438;-76
2022/05/04 05:07:29;;;;;;;15.38;4.60;;;;;;;7.23;74.24;101828.63;5004027;28;20400;-70
2022/05/04 05:09:56;;;;;;;11.48;5.18;;;;;;;7.27;74.51;101827.50;5027032;28;20026;-76
2022/05/04 05:12:21;;;;;;;14.82;4.43;;;;;;;7.30;74.30;101835.50;5005323;28;20025;-76
2022/05/04 05:17:31;;;;;;;11.90;5.05;;;;;;;7.31;74.00;101829.16;5025841;28;20538;-75
2022/05/04 05:19:57;;;;;;;10.20;4.50;;;;;;;7.34;74.47;101836.28;5027816;28;20029;-69
2022/05/04 05:22:22;;;;;;;12.75;4.43;;;;;;;7.36;74.23;101842.50;5019453;28;20033;-69
2022/05/04 05:24:48;;;;;;;9.00;4.25;;;;;;;7.39;74.07;101835.13;5026093;28;20037;-69
2022/05/04 05:27:14;;;;;;;14.40;4.63;;;;;;;7.40;74.23;101838.69;5026618;28;20029;-70
2022/05/04 05:29:39;;;;;;;12.65;4.60;;;;;;;7.43;73.93;101840.41;5028503;28;20025;-68
2022/05/04 05:32:05;;;;;;;18.75;5.75;;;;;;;7.46;73.74;101845.69;5030677;28;20079;-69
2022/05/04 05:34:33;;;;;;;11.65;4.88;;;;;;;7.48;73.87;101841.09;5027051;28;20037;-75
2022/05/04 05:36:59;;;;;;;12.15;4.70;;;;;;;7.52;73.52;101832.78;5005544;28;20038;-76
2022/05/04 05:39:24;;;;;;;11.55;4.35;;;;;;;7.55;73.40;101835.31;5027243;28;20045;-69
2022/05/04 05:41:50;;;;;;;11.88;4.65;;;;;;;7.57;72.84;101828.03;5005029;28;20539;-75
2022/05/04 05:44:15;;;;;;;13.77;5.07;;;;;;;7.57;72.99;101828.03;5021934;28;20537;-69
2022/05/04 05:46:40;;;;;;;13.32;5.25;;;;;;;7.64;72.76;101831.34;5039025;28;20389;-69
2022/05/04 05:49:06;;;;;;;17.08;5.43;;;;;;;7.66;72.56;101832.16;5030670;28;20159;-75
2022/05/04 05:51:31;;;;;;;14.57;5.93;;;;;;;7.70;72.15;101835.63;5009374;28;20083;-69
2022/05/04 05:53:56;;;;;;;9.00;3.95;;;;;;;7.78;71.98;101838.84;5010259;28;20038;-75
2022/05/04 05:56:22;;;;;;;15.55;4.75;;;;;;;7.83;71.81;101839.50;5010928;28;20040;-74
2022/05/04 05:58:47;;;;;;;12.70;5.35;;;;;;;7.80;72.20;101845.97;5012013;28;20052;-68
2022/05/04 06:01:12;;;;;;;16.00;4.95;;;;;;;7.73;71.09;101828.22;4996975;28;20039;-74
2022/05/04 06:03:38;;;;;;;11.50;5.18;;;;;;;7.78;72.56;101847.84;5029880;28;20108;-69
2022/05/04 06:06:03;;;;;;;8.32;4.32;;;;;;;7.79;72.05;101841.50;5026055;28;20018;-70
2022/05/04 06:08:28;;;;;;;15.02;4.85;;;;;;;7.80;72.14;101843.25;5028209;28;20021;-75
2022/05/04 06:10:54;;;;;;;11.02;5.30;;;;;;;7.81;71.69;101855.84;5001776;28;20040;-69
2022/05/04 06:13:19;;;;;;;9.73;4.97;;;;;;;7.81;72.06;101853.13;5026087;28;20052;-68
2022/05/04 06:15:44;;;;;;;15.05;4.90;;;;;;;7.86;72.11;101855.63;5029845;28;20065;-69
2022/05/04 06:18:12;;;;;;;10.32;4.38;;;;;;;7.90;71.67;101859.97;5030455;28;20079;-68
2022/05/04 06:20:37;;;;;;;14.73;4.90;;;;;;;7.95;71.02;101855.22;5029971;28;20029;-75
2022/05/04 06:23:02;;;;;;;20.75;4.72;;;;;;;8.03;69.83;101849.47;5005769;28;20111;-70
2022/05/04 06:25:28;;;;;;;14.27;5.00;;;;;;;8.02;71.32;101862.16;5016169;28;20030;-69
2022/05/04 06:27:53;;;;;;;12.82;5.05;;;;;;;8.05;71.66;101861.97;5022622;28;20041;-69
2022/05/04 06:35:46;;;;;;;12.30;4.78;;;;;;;8.40;69.91;101851.38;5011390;28;20033;-69
2022/05/04 06:38:12;;;;;;;22.02;6.03;;;;;;;8.46;69.62;101852.91;5005368;28;20404;-74
2022/05/04 06:40:38;;;;;;;16.08;5.05;;;;;;;8.56;69.75;101859.66;5027377;28;20048;-70
2022/05/04 06:43:03;;;;;;;13.00;5.18;;;;;;;8.61;68.87;101858.47;5032684;28;20041;-75
2022/05/04 06:45:29;;;;;;;12.90;5.03;;;;;;;8.61;68.57;101865.75;5002301;28;20037;-69
2022/05/04 06:47:54;;;;;;;14.77;4.68;;;;;;;8.64;67.91;101863.78;5028818;28;20540;-75
2022/05/04 06:50:19;;;;;;;15.80;5.35;;;;;;;8.74;68.93;101863.31;5024105;28;20045;-69
2022/05/04 06:52:45;;;;;;;12.95;4.72;;;;;;;8.95;68.77;101867.69;5020704;28;20064;-75
2022/05/04 06:55:10;;;;;;;11.05;4.72;;;;;;;9.19;67.05;101868.31;5025409;28;20045;-75
2022/05/04 06:57:36;;;;;;;11.60;4.93;;;;;;;9.47;68.41;101861.50;5017295;28;20108;-75
2022/05/04 07:00:06;;;;;;;11.60;4.45;;;;;;;9.63;65.42;101866.03;5009027;28;20030;-75
2022/05/04 07:02:33;;;;;;;12.43;4.43;;;;;;;9.80;66.13;101862.44;5011836;28;20049;-69
2022/05/04 07:04:59;;;;;;;11.32;4.03;;;;;;;9.85;66.92;101859.47;5011711;28;20117;-69
2022/05/04 07:07:24;;;;;;;14.43;4.68;;;;;;;9.84;64.00;101860.41;5010785;28;20136;-75
2022/05/04 07:09:49;;;;;;;10.38;4.50;;;;;;;9.79;63.46;101860.69;5018483;28;20393;-68
2022/05/04 07:12:14;;;;;;;8.73;4.05;;;;;;;9.80;64.33;101861.56;5025238;28;20469;-75
2022/05/04 07:14:40;;;;;;;11.55;4.50;;;;;;;9.87;65.57;101861.13;5007021;28;20041;-69
2022/05/04 07:17:05;;;;;;;7.50;4.63;;;;;;;9.83;62.62;101854.09;5032262;28;20025;-75
2022/05/04 07:19:31;;;;;;;8.73;4.13;;;;;;;9.85;63.60;101854.91;5016019;28;20025;-68
2022/05/04 07:21:56;;;;;;;13.30;4.07;;;;;;;9.98;61.71;101857.88;5025526;28;20066;-68
2022/05/04 07:24:21;;;;;;;8.93;3.67;;;;;;;9.90;61.14;101858.25;5025360;28;20041;-68
2022/05/04 07:26:47;;;;;;;11.68;4.30;;;;;;;9.84;61.35;101849.53;5020384;28;20033;-75
2022/05/04 07:29:12;;;;;;;10.93;4.38;;;;;;;9.78;62.33;101845.31;5029431;28;20034;-68
2022/05/04 07:31:38;;;;;;;11.00;4.10;;;;;;;9.77;62.72;101850.84;5021384;28;20041;-68
2022/05/04 07:34:03;;;;;;;11.27;3.67;;;;;;;9.84;63.31;101852.25;5020310;28;20319;-75
2022/05/04 07:36:29;;;;;;;10.95;4.47;;;;;;;9.83;62.53;101854.09;5012624;28;20226;-73
2022/05/04 07:38:54;;;;;;;18.88;4.82;;;;;;;9.85;62.66;101854.91;5027125;28;20405;-69
2022/05/04 07:44:03;;;;;;;17.67;4.60;;;;;;;9.90;61.56;101849.25;5025782;28;20075;-68
2022/05/04 07:46:29;;;;;;;12.02;4.93;;;;;;;10.18;63.18;101848.63;5020710;28;20440;-74
2022/05/04 07:48:55;;;;;;;13.20;4.40;;;;;;;10.66;60.06;101860.47;5032966;28;20056;-69
2022/05/04 07:51:21;;;;;;;13.98;4.80;;;;;;;11.10;62.14;101851.63;5005150;28;20500;-74
2022/05/04 07:53:46;;;;;;;10.63;4.28;;;;;;;11.71;60.73;101851.53;5004906;28;20072;-67
2022/05/04 07:56:12;;;;;;;13.07;4.95;;;;;;;12.48;56.44;101850.34;5029048;28;20116;-73
2022/05/04 07:58:37;;;;;;;8.88;4.53;;;;;;;13.28;56.29;101858.78;5023431;28;20026;-74
2022/05/04 08:06:30;;;;;;;12.77;5.32;;;;;;;14.51;52.42;101853.81;5031248;28;20310;-74
2022/05/04 08:08:55;;;;;;;11.20;5.32;;;;;;;14.75;50.50;101860.22;5027162;28;20082;-74
2022/05/04 08:11:21;;;;;;;11.73;5.53;;;;;;;14.84;49.15;101860.53;5022550;28;20588;-68
2022/05/04 08:13:46;;;;;;;17.17;5.43;;;;;;;14.82;50.89;101860.63;5013383;28;20037;-70
2022/05/04 08:16:13;;;;;;;9.70;5.20;;;;;;;15.23;51.61;101851.19;5006794;28;20092;-74
2022/05/04 08:18:41;;;;;;;9.05;5.03;;;;;;;15.64;49.19;101856.25;5032242;28;20076;-73
2022/05/04 08:21:08;;;;;;;13.23;5.32;;;;;;;15.90;49.01;101854.25;5032508;28;20117;-74
2022/05/04 08:23:35;;;;;;;11.25;4.78;;;;;;;15.89;46.02;101848.84;5027173;28;20045;-68
2022/05/04 08:26:01;;;;;;;13.52;5.45;;;;;;;15.49;46.75;101851.94;5001043;28;20047;-67
2022/05/04 08:28:26;;;;;;;13.40;5.45;;;;;;;15.17;51.06;101857.13;5026497;28;20033;-74
2022/05/04 08:30:52;;;;;;;11.25;5.40;;;;;;;15.72;50.66;101859.28;5020690;28;20037;-74
2022/05/04 08:33:18;;;;;;;9.77;5.60;;;;;;;16.02;47.85;101853.25;5032230;28;20017;-67
2022/05/04 08:35:44;;;;;;;12.70;5.18;;;;;;;16.50;48.19;101853.03;5032381;28;20036;-66
2022/05/04 08:38:09;;;;;;;13.00;5.10;;;;;;;16.98;47.31;101849.19;5024765;28;20049;-74
2022/05/04 08:40:36;;;;;;;10.45;4.78;;;;;;;17.40;47.21;101852.94;5030093;28;20473;-74
2022/05/04 08:43:07;;;;;;;10.07;5.05;;;;;;;17.47;47.58;101850.50;4993495;28;20030;-65
2022/05/04 08:45:38;;;;;;;9.85;6.20;;;;;;;17.51;45.06;101849.25;4995611;28;20048;-74
2022/05/04 08:48:05;;;;;;;11.60;5.28;;;;;;;17.58;47.77;101851.34;5032036;28;20033;-66
2022/05/04 08:50:31;;;;;;;12.65;5.90;;;;;;;17.71;43.92;101855.78;5028114;28;20037;-67
2022/05/04 08:52:56;;;;;;;16.48;6.43;;;;;;;17.97;46.71;101857.16;5023052;28;20369;-67
2022/05/04 08:55:24;;;;;;;11.95;6.43;;;;;;;18.16;46.33;101853.66;5027643;28;20037;-74
2022/05/04 08:57:50;;;;;;;13.43;6.35;;;;;;;17.99;42.00;101846.00;5002438;28;20530;-74
2022/05/04 09:00:17;;;;;;;13.38;6.57;;;;;;;17.85;42.65;101847.22;5029230;28;20029;-73
2022/05/04 09:02:42;;;;;;;10.88;6.45;;;;;;;17.54;40.62;101844.34;5031919;28;20044;-66
2022/05/04 09:05:24;;;;;;;14.40;6.43;;;;;;;17.71;43.26;101851.13;5031582;28;20038;-66
2022/05/04 09:07:51;;;;;;;12.85;7.10;;;;;;;17.92;44.54;101847.56;5030357;28;20063;-68
2022/05/04 09:10:19;;;;;;;10.55;5.55;;;;;;;18.07;43.73;101846.22;5020836;28;20147;-73
2022/05/04 09:12:46;;;;;;;9.35;5.45;;;;;;;18.53;43.97;101845.75;5030982;28;20497;-72
2022/05/04 09:15:20;;;;;;;14.80;6.30;;;;;;;18.38;42.27;101851.78;5005121;28;20198;-68
2022/05/04 09:17:46;;;;;;;14.02;5.85;;;;;;;18.66;43.21;101841.88;5031429;28;20029;-74
2022/05/04 09:22:55;;;;;;;12.48;6.05;;;;;;;19.32;41.67;101839.47;5027741;28;20490;-67
2022/05/04 09:25:20;;;;;;;10.57;6.13;;;;;;;19.27;39.89;101834.38;5018281;28;20069;-72
2022/05/04 09:27:47;;;;;;;9.38;5.35;;;;;;;19.03;42.67;101832.00;5021480;28;20381;-75
2022/05/04 09:30:13;;;;;;;9.75;5.68;;;;;;;18.97;43.33;101829.81;5020720;28;20034;-66
2022/05/04 09:32:40;;;;;;;10.57;6.70;;;;;;;18.71;39.94;101832.22;5031246;28;20033;-66
2022/05/04 09:35:16;;;;;;;11.27;6.47;;;;;;;18.67;43.23;101825.19;5030954;28;20033;-73
2022/05/04 09:45:55;;;;;;;10.48;6.25;;;;;;;18.54;40.84;101833.69;5024403;28;20044;-66
2022/05/04 09:48:32;;;;;;;13.57;7.20;;;;;;;18.51;41.74;101825.72;5030612;28;20113;-66
2022/05/04 09:51:05;;;;;;;13.50;6.32;;;;;;;18.45;40.13;101831.78;5007573;28;20120;-67
2022/05/04 09:53:31;;;;;;;12.07;6.07;;;;;;;17.72;39.85;101819.88;5028508;28;20531;-67
2022/05/04 09:55:57;;;;;;;17.80;6.47;;;;;;;17.47;44.70;101823.88;5020987;28;20088;-66
2022/05/04 09:58:26;;;;;;;12.10;6.40;;;;;;;17.96;45.19;101824.28;5008628;28;20432;-75
2022/05/04 10:00:52;;;;;;;15.55;6.47;;;;;;;17.87;43.44;101822.34;5011792;28;20583;-75
2022/05/04 10:03:19;;;;;;;15.38;6.80;;;;;;;18.00;43.38;101822.97;5030444;28;20405;-65
2022/05/04 10:05:48;;;;;;;12.38;6.85;;;;;;;18.54;42.57;101819.06;5012500;28;20034;-69
2022/05/04 10:08:14;;;;;;;14.05;6.18;;;;;;;19.09;42.15;101808.50;5015890;28;20556;-66
2022/05/04 10:10:40;;;;;;;16.55;6.88;;;;;;;19.50;37.68;101814.78;5021060;28;20120;-66
2022/05/04 10:13:08;;;;;;;10.73;6.45;;;;;;;19.35;37.16;101809.69;5026668;28;20040;-74
2022/05/04 10:15:36;;;;;;;14.85;6.43;;;;;;;19.36;41.92;101814.19;5021639;28;20064;-68
2022/05/04 10:18:12;;;;;;;13.95;7.18;;;;;;;18.93;38.94;101814.59;5030230;28;20506;-67
2022/05/04 10:21:10;;;;;;;14.45;7.32;;;;;;;18.78;40.33;101810.44;5027168;28;20029;-74
2022/05/04 10:23:39;;;;;;;11.25;6.45;;;;;;;18.38;39.50;101811.31;5018898;28;20044;-67
2022/05/04 10:26:05;;;;;;;10.23;6.60;;;;;;;18.17;41.19;101805.81;5024295;28;20049;-68
2022/05/04 10:28:37;;;;;;;15.13;6.93;;;;;;;18.14;39.62;101806.13;5017129;28;20037;-75
2022/05/04 10:31:10;;;;;;;13.57;6.03;;;;;;;18.73;42.04;101810.00;5006811;28;20505;-65
2022/05/04 10:33:36;;;;;;;15.10;6.65;;;;;;;19.20;41.14;101799.22;5025036;28;20052;-73
2022/05/04 10:36:17;;;;;;;11.13;5.93;;;;;;;19.16;39.63;101814.28;5023202;28;20075;-67
2022/05/04 10:38:44;;;;;;;11.27;6.07;;;;;;;19.07;37.95;101807.75;5021241;28;20512;-68
2022/05/04 10:41:10;;;;;;;13.60;5.85;;;;;;;19.22;40.63;101805.47;5009563;28;20029;-73
2022/05/04 10:43:50;;;;;;;10.73;5.85;;;;;;;19.14;38.46;101806.19;5026529;28;20045;-73
2022/05/04 10:46:17;;;;;;;11.20;5.72;;;;;;;19.01;41.20;101805.56;5027786;28;20072;-68
2022/05/04 10:48:44;;;;;;;12.02;6.78;;;;;;;18.77;40.88;101809.59;5029924;28;20026;-68
2022/05/04 10:51:18;;;;;;;12.13;6.28;;;;;;;18.73;43.15;101807.25;5023903;28;20040;-66
2022/05/04 10:53:46;;;;;;;11.23;7.47;;;;;;;18.80;38.52;101800.19;5027992;28;20457;-66
2022/05/04 10:56:16;;;;;;;10.45;6.82;;;;;;;18.69;38.34;101794.75;5023987;28;20403;-67
2022/05/04 10:58:50;;;;;;;12.18;7.30;;;;;;;18.59;42.64;101787.28;5001865;28;20121;-67
2022/05/04 11:01:20;;;;;;;14.85;7.40;;;;;;;18.49;40.07;101794.66;5026373;28;20091;-66
2022/05/04 11:04:05;;;;;;;11.82;6.00;;;;;;;18.60;41.79;101791.81;5025788;28;20030;-68
2022/05/04 11:06:31;;;;;;;18.23;7.25;;;;;;;18.94;42.31;101794.25;5025145;28;20028;-66
2022/05/04 11:09:02;;;;;;;9.80;5.97;;;;;;;19.16;37.82;101795.00;5014079;28;20477;-66
2022/05/04 11:11:27;;;;;;;12.10;6.18;;;;;;;19.26;41.43;101787.63;5002852;28;20042;-74
2022/05/04 11:13:53;;;;;;;12.68;6.28;;;;;;;19.73;42.71;101791.41;5029261;28;20028;-75
2022/05/04 11:16:22;;;;;;;12.27;7.20;;;;;;;20.02;38.04;101777.50;5004358;28;20033;-67
2022/05/04 11:18:48;;;;;;;11.85;6.57;;;;;;;19.94;36.34;101784.81;5029480;28;20069;-74
2022/05/04 11:21:15;;;;;;;16.17;7.05;;;;;;;20.04;37.25;101783.75;5011318;28;20506;-66
2022/05/04 11:23:48;;;;;;;14.85;6.95;;;;;;;20.56;39.55;101772.22;5026000;28;20037;-66
2022/05/04 11:26:23;;;;;;;12.60;6.25;;;;;;;21.10;38.59;101770.44;4983909;28;20124;-73
2022/05/04 11:28:50;;;;;;;14.88;7.03;;;;;;;20.85;33.59;101770.16;5003145;28;20029;-70
2022/05/04 11:31:16;;;;;;;11.90;6.45;;;;;;;20.92;37.50;101767.63;5020057;28;20530;-67
2022/05/04 11:33:46;;;;;;;10.02;6.38;;;;;;;21.15;36.73;101780.00;5029702;28;20408;-66
2022/05/04 11:36:12;;;;;;;15.07;7.00;;;;;;;21.21;36.49;101778.47;5009185;28;20091;-75
2022/05/04 11:38:38;;;;;;;11.57;6.93;;;;;;;21.18;37.51;101772.41;5020932;28;20056;-73
2022/05/04 11:41:04;;;;;;;14.52;7.00;;;;;;;21.31;37.51;101772.91;5014838;28;20037;-71
2022/05/04 11:43:34;;;;;;;10.60;7.05;;;;;;;21.69;38.44;101766.16;5021778;28;20527;-66
2022/05/04 11:46:09;;;;;;;11.00;7.28;;;;;;;22.13;36.40;101767.00;5016134;28;20040;-74
2022/05/04 11:48:47;;;;;;;13.35;6.80;;;;;;;22.12;35.87;101769.94;5011630;28;20128;-67
2022/05/04 11:51:15;;;;;;;11.50;7.35;;;;;;;21.53;36.12;101755.78;5029470;28;20030;-74
2022/05/04 11:53:41;;;;;;;13.57;7.82;;;;;;;21.18;35.52;101748.38;5020730;28;20036;-73
2022/05/04 11:56:08;;;;;;;17.25;7.75;;;;;;;21.01;37.86;101749.22;5010121;28;20025;-75